Hovedside
METAR-TAF:

METAR-TAF

Lufthavner :

Kajana, Finland

Kajana lufthavn

breddegrad: 64-17N, lengdegrad: 027-41E, høyde over havet: 143 m

Gjeldene værobservasjon

Denne rapporten ble laget for 34 minutter siden, klokken 20:50 UTC
Vind 4 kt fra Nord
Temperatur -9°C
Luftfuktighet 73%
Trykk 1040 hPa
Sikt 10 km eller mer
ingen skyer under 1500 m og ingen bygeskyer

METAR: EFKI 242050Z AUTO 35004KT CAVOK M09/M13 Q1040

Tid: 23:24 (21:24 UTC)

Varsel

Denne rapporten ble laget for 6 timer og 52 minutter siden, klokken 14:32 UTC
Varsel gyldig fra 24. klokken 15 UTC til 24. klokken 17 UTC
Vind 4 kt fra Nord-nordøst
Sikt 10 km eller mer
Få skyer i en høyde av 4000 ft
Sannsynlighet 30%
fra 24. klokken 15 UTC til 24. klokken 17 UTC
Sikt: 6000 m
lett snø

TAF: EFKI 241432Z 2415/2417 02004KT 9999 FEW040 PROB30 2415/2417 6000 -SN

Værobservasjoner og værvarsel for over 4000 flyplasser (METAR- og TAF-rapporter).

Tilgjengelige stasjoner er representert av de røde og gule prikkene på kartet.

Hold musepekeren over prikken for å se navnet på stasjonen.

Klikk så for å se værobservasjoner og -varsler.

For å forandre kartet kan du klikke på den grønne knappen med svart kryss for å zoome inn, på den grønne knappen med strek for å zoome ut, eller på de grønne pilene for å se tilstøtende kart.


METAR-TAF: